Date,TemperatureHighF,TemperatureAvgF,TemperatureLowF,DewpointHighF,DewpointAvgF,DewpointLowF,HumidityHigh,HumidityAvg,HumidityLow,PressureMaxIn,PressureMinIn,WindSpeedMaxMPH,WindSpeedAvgMPH,GustSpeedMaxMPH,PrecipitationSumIn
2013-3-1,47,38,33,34,28,20,93,68,44,30.08,29.99,9,0,9,0.03
2013-3-2,46,40,34,35,30,21,93,72,42,30.07,29.67,5,0,5,0.01
2013-3-3,34,25,21,25,20,16,89,82,67,30.39,29.57,9,0,9,0.00
2013-3-4,30,20,15,18,14,11,86,76,59,30.46,30.32,5,0,5,0.10
2013-3-5,32,20,14,32,13,9,85,74,45,30.34,30.12,1,0,1,0.01
2013-3-6,33,20,12,32,14,7,85,76,53,30.12,29.88,7,0,7,0.01
2013-3-7,32,21,15,32,15,10,83,76,61,30.20,29.94,5,0,5,0.01
2013-3-8,40,30,15,20,16,10,88,59,32,30.16,29.96,6,0,6,0.01
2013-3-9,44,30,16,23,15,10,79,54,32,30.32,30.06,3,0,3,0.00
2013-3-10,44,36,31,24,16,10,75,45,30,30.23,29.99,14,0,14,0.00
2013-3-11,36,30,24,23,5,-3,75,36,21,30.30,30.03,4,0,4,0.00
2013-3-12,40,31,22,25,14,1,59,49,37,30.27,29.87,4,0,4,0.00
2013-3-13,48,43,35,35,27,24,91,54,41,29.97,29.80,14,0,14,0.01
2013-3-14,46,24,14,30,16,7,87,72,48,30.15,29.89,11,0,11,0.00
2013-3-15,34,21,12,26,13,6,92,72,49,30.24,30.03,8,0,8,0.00
2013-3-16,43,25,16,26,16,11,86,72,45,30.21,29.68,5,0,5,0.00
2013-3-17,32,15,9,15,9,4,85,77,64,30.09,29.62,10,0,10,0.01
2013-3-18,30,19,8,19,10,2,86,70,31,30.19,29.88,5,0,5,0.00
2013-3-19,36,21,7,16,7,2,84,59,26,30.38,29.96,9,0,9,0.01
2013-3-20,50,36,21,32,21,11,89,55,35,29.96,29.31,11,0,11,0.02
2013-3-21,37,32,22,31,19,11,90,63,37,29.98,29.34,6,0,6,0.00
2013-3-22,31,22,14,18,13,8,84,70,45,30.40,29.98,4,0,4,0.02
2013-3-23,30,17,5,13,5,-3,78,60,29,30.54,30.36,7,0,7,0.00
2013-3-24,36,20,4,9,3,-3,73,50,23,30.54,30.29,5,0,5,0.00
2013-3-25,45,26,12,14,6,0,62,44,19,30.34,30.07,4,0,4,0.00
2013-3-26,48,34,17,20,13,8,66,44,23,30.17,29.95,2,0,2,0.00
2013-3-27,52,35,22,22,18,14,74,53,26,30.12,29.97,2,0,2,0.00
2013-3-28,52,37,25,32,19,15,76,52,24,30.15,30.00,3,0,3,0.00
2013-3-29,51,37,24,25,19,16,74,50,26,30.21,30.03,8,0,8,0.00
2013-3-30,54,43,30,26,22,16,77,47,24,30.24,30.03,3,0,3,0.00
2013-3-31,56,44,35,29,26,21,66,50,32,30.15,29.99,7,0,7,0.00